Time;durP1;ratioP1;P1;durP2;ratioP2;P2;SDS_P1;SDS_P2;PMS_P1;PMS_P2;Temp;Humidity;BMP_temperature;BMP_pressure;BME280_temperature;BME280_humidity;BME280_pressure;Samples;Min_cycle;Max_cycle;Signal;HPM_P1;HPM_P2
2022/03/09 00:01:28;;;;;;;22.70;9.80;;;;;;;4.63;40.39;101751.97;5058275;28;20054;-64
2022/03/09 00:03:55;;;;;;;21.98;9.48;;;;;;;4.60;40.63;101752.13;5075157;28;20036;-64
2022/03/09 00:06:22;;;;;;;21.48;8.98;;;;;;;4.68;40.73;101763.06;5074062;28;20048;-64
2022/03/09 00:08:49;;;;;;;19.38;9.05;;;;;;;4.72;40.60;101753.22;5075582;28;20463;-64
2022/03/09 00:11:15;;;;;;;19.13;9.63;;;;;;;4.66;40.15;101764.06;5057242;28;20412;-64
2022/03/09 00:13:42;;;;;;;19.42;9.18;;;;;;;4.66;40.21;101761.44;5075356;28;20433;-64
2022/03/09 00:16:09;;;;;;;19.92;9.35;;;;;;;4.74;40.53;101767.09;5057001;28;20033;-64
2022/03/09 00:18:36;;;;;;;20.50;9.50;;;;;;;4.78;40.16;101763.34;5074266;28;20044;-64
2022/03/09 00:21:03;;;;;;;17.70;8.77;;;;;;;4.75;40.02;101767.00;5024717;28;20060;-64
2022/03/09 00:23:31;;;;;;;18.80;8.32;;;;;;;4.67;39.71;101774.50;5075408;28;20102;-64
2022/03/09 00:25:58;;;;;;;22.33;9.50;;;;;;;4.64;40.28;101774.69;5074663;28;20047;-64
2022/03/09 00:28:25;;;;;;;20.50;8.27;;;;;;;4.59;40.45;101768.84;5074058;28;20394;-64
2022/03/09 00:30:51;;;;;;;17.08;8.57;;;;;;;4.65;40.45;101780.78;5073937;28;20493;-64
2022/03/09 00:33:18;;;;;;;19.92;8.70;;;;;;;4.60;40.67;101781.03;5075603;28;20041;-64
2022/03/09 00:35:45;;;;;;;21.70;8.93;;;;;;;4.57;40.88;101776.00;5073707;28;20078;-64
2022/03/09 00:38:17;;;;;;;19.98;8.75;;;;;;;4.57;40.77;101779.47;5074231;28;20468;-64
2022/03/09 00:40:47;;;;;;;20.00;8.55;;;;;;;4.61;40.00;101785.38;5056979;28;20044;-64
2022/03/09 00:43:15;;;;;;;19.92;9.35;;;;;;;4.47;40.29;101787.97;5074372;28;20059;-64
2022/03/09 00:45:42;;;;;;;18.60;8.27;;;;;;;4.42;41.15;101788.22;5074563;28;20456;-64
2022/03/09 00:48:10;;;;;;;18.02;8.77;;;;;;;4.40;40.79;101788.31;5074173;28;20493;-64
2022/03/09 00:50:37;;;;;;;25.02;8.80;;;;;;;4.40;40.57;101790.09;5073698;28;20059;-64
2022/03/09 00:53:03;;;;;;;23.83;8.80;;;;;;;4.34;40.87;101785.19;5073550;28;20044;-64
2022/03/09 00:55:30;;;;;;;18.50;9.02;;;;;;;4.28;41.25;101796.06;5056199;28;20037;-64
2022/03/09 00:57:57;;;;;;;20.85;9.15;;;;;;;4.28;41.45;101796.91;5074814;28;20044;-64
2022/03/09 01:00:24;;;;;;;16.83;8.43;;;;;;;4.22;41.02;101810.38;5073623;28;20079;-64
2022/03/09 01:02:50;;;;;;;18.63;8.18;;;;;;;4.30;41.47;101799.44;5073368;28;20451;-64
2022/03/09 01:05:17;;;;;;;18.85;8.93;;;;;;;4.25;41.10;101789.19;5056600;28;20056;-64
2022/03/09 01:07:44;;;;;;;19.30;8.80;;;;;;;4.30;41.37;101788.94;5056687;28;20404;-64
2022/03/09 01:10:11;;;;;;;18.95;8.50;;;;;;;4.24;41.18;101790.13;5072917;28;20040;-64
2022/03/09 01:12:38;;;;;;;18.45;8.90;;;;;;;4.25;40.93;101789.19;5074361;28;20110;-64
2022/03/09 01:15:05;;;;;;;22.85;8.35;;;;;;;4.30;40.79;101795.03;5072905;28;20093;-64
2022/03/09 01:17:32;;;;;;;21.75;8.63;;;;;;;4.31;40.90;101786.22;5072918;28;20040;-64
2022/03/09 01:19:59;;;;;;;22.95;8.82;;;;;;;4.25;40.54;101778.69;5074372;28;20040;-64
2022/03/09 01:22:26;;;;;;;20.80;8.45;;;;;;;4.23;41.39;101780.56;5072936;28;20068;-64
2022/03/09 01:24:53;;;;;;;18.40;7.88;;;;;;;4.21;40.85;101779.81;5072254;28;20047;-64
2022/03/09 01:27:19;;;;;;;19.98;8.43;;;;;;;4.14;41.41;101781.91;5071982;28;20044;-64
2022/03/09 01:29:47;;;;;;;21.10;8.88;;;;;;;4.18;41.31;101774.72;5072914;28;20136;-64
2022/03/09 01:32:13;;;;;;;19.75;8.43;;;;;;;4.11;41.32;101771.59;5072679;28;20067;-64
2022/03/09 01:34:40;;;;;;;20.27;8.35;;;;;;;4.06;40.61;101778.91;5073631;28;20040;-64
2022/03/09 01:37:07;;;;;;;17.25;7.93;;;;;;;4.13;40.28;101776.75;5072968;28;20075;-64
2022/03/09 01:39:35;;;;;;;21.45;8.70;;;;;;;4.14;40.06;101770.56;5072968;28;20127;-64
2022/03/09 01:42:02;;;;;;;18.40;8.20;;;;;;;4.04;40.29;101770.25;5073974;28;20044;-64
2022/03/09 01:44:29;;;;;;;21.05;8.13;;;;;;;4.10;40.17;101769.06;5072253;28;20048;-64
2022/03/09 01:46:56;;;;;;;20.75;8.75;;;;;;;4.13;40.64;101766.25;5073536;28;20040;-64
2022/03/09 01:49:24;;;;;;;26.08;8.82;;;;;;;4.15;40.74;101765.25;5072540;28;20072;-64
2022/03/09 01:51:56;;;;;;;17.60;8.30;;;;;;;4.09;40.57;101765.56;5073699;28;20055;-64
2022/03/09 01:54:23;;;;;;;19.70;8.10;;;;;;;4.08;41.05;101757.81;5072251;28;20052;-64
2022/03/09 01:56:50;;;;;;;18.48;8.15;;;;;;;4.11;40.27;101763.72;5055665;28;20044;-64
2022/03/09 01:59:17;;;;;;;22.40;8.13;;;;;;;4.07;41.32;101762.19;5072386;28;20044;-64
2022/03/09 02:01:45;;;;;;;21.10;8.07;;;;;;;3.99;41.24;101765.25;5072532;28;20044;-64
2022/03/09 02:04:13;;;;;;;19.25;8.07;;;;;;;3.98;41.70;101754.81;5071526;28;20043;-64
2022/03/09 02:06:40;;;;;;;19.80;8.13;;;;;;;3.94;41.31;101759.41;5092250;28;20563;-64
2022/03/09 02:11:56;;;;;;;23.30;8.30;;;;;;;3.90;42.65;101759.69;5093154;28;20480;-64
2022/03/09 02:14:39;;;;;;;21.45;8.98;;;;;;;3.79;42.53;101761.13;5091991;28;20508;-64
2022/03/09 02:17:10;;;;;;;24.98;8.48;;;;;;;3.78;42.47;101762.06;5092396;28;20064;-64
2022/03/09 02:19:38;;;;;;;18.40;8.23;;;;;;;3.80;42.48;101768.06;5075836;28;20055;-64
2022/03/09 02:25:12;;;;;;;20.88;8.10;;;;;;;3.82;42.27;101765.34;5026400;27;20351;-64
2022/03/09 02:27:40;;;;;;;19.13;8.77;;;;;;;3.81;42.17;101766.28;5026519;28;20087;-63
2022/03/09 02:30:08;;;;;;;21.38;8.65;;;;;;;3.69;41.95;101772.22;5016572;28;20072;-64
2022/03/09 02:32:45;;;;;;;22.95;9.23;;;;;;;3.72;42.56;101774.66;5026964;28;20440;-63
2022/03/09 02:35:14;;;;;;;19.55;8.85;;;;;;;3.57;43.25;101769.31;5025430;28;20048;-64
2022/03/09 02:37:42;;;;;;;17.38;8.23;;;;;;;3.57;43.32;101766.69;5025807;28;20054;-63
2022/03/09 02:40:16;;;;;;;19.17;8.50;;;;;;;3.59;42.89;101775.34;5026553;28;20041;-63
2022/03/09 02:42:42;;;;;;;20.35;8.80;;;;;;;3.51;42.98;101780.16;5026687;28;20045;-64
2022/03/09 02:45:11;;;;;;;21.65;9.35;;;;;;;3.52;43.13;101773.97;5008934;28;20042;-63
2022/03/09 02:47:40;;;;;;;18.20;8.40;;;;;;;3.55;43.05;101778.22;5026658;28;20049;-63
2022/03/09 02:50:09;;;;;;;19.58;8.98;;;;;;;3.44;43.14;101777.00;5026771;28;20076;-63
2022/03/09 02:52:38;;;;;;;23.27;9.40;;;;;;;3.52;43.57;101775.75;5009771;28;20054;-63
2022/03/09 02:55:06;;;;;;;37.67;10.18;;;;;;;3.55;43.60;101775.59;4989269;28;20092;-64
2022/03/09 02:57:33;;;;;;;27.05;10.30;;;;;;;3.54;42.91;101772.09;5006619;28;20038;-63
2022/03/09 03:00:01;;;;;;;23.20;10.57;;;;;;;3.51;43.92;101764.44;5005818;28;20468;-63
2022/03/09 03:02:28;;;;;;;36.00;14.35;;;;;;;3.46;43.15;101769.06;5005474;28;20429;-63
2022/03/09 03:04:54;;;;;;;32.13;14.73;;;;;;;3.43;43.63;101764.81;5038028;28;20494;-63
2022/03/09 03:07:21;;;;;;;36.30;16.77;;;;;;;3.37;43.97;101753.81;5005393;28;20048;-64
2022/03/09 03:09:48;;;;;;;39.42;16.65;;;;;;;3.41;43.54;101755.34;5006781;28;20081;-63
2022/03/09 03:12:14;;;;;;;37.30;18.30;;;;;;;3.35;44.00;101748.66;5005057;28;20042;-64
2022/03/09 03:14:41;;;;;;;31.92;16.60;;;;;;;3.46;43.34;101746.28;5006296;28;20065;-63
2022/03/09 03:17:08;;;;;;;36.83;18.30;;;;;;;3.36;43.41;101742.47;5005314;28;20038;-63
2022/03/09 03:19:34;;;;;;;42.70;20.42;;;;;;;3.37;43.79;101744.16;5006476;28;20520;-63
2022/03/09 03:22:01;;;;;;;43.65;20.50;;;;;;;3.29;44.22;101746.34;5011039;28;20069;-63
2022/03/09 03:24:28;;;;;;;40.40;19.90;;;;;;;3.25;44.18;101755.31;5008033;28;20042;-63
2022/03/09 03:26:55;;;;;;;34.78;15.68;;;;;;;2.99;44.15;101752.28;5024694;28;20052;-63
2022/03/09 03:29:21;;;;;;;35.95;17.77;;;;;;;3.00;44.07;101753.13;5018980;28;20046;-63
2022/03/09 03:31:49;;;;;;;29.98;14.52;;;;;;;2.90;45.04;101752.78;5005279;28;20053;-63
2022/03/09 03:34:18;;;;;;;29.45;14.13;;;;;;;2.92;44.74;101740.44;4988574;28;20406;-63
2022/03/09 03:36:45;;;;;;;29.38;12.00;;;;;;;2.82;45.00;101747.06;4992542;28;20406;-63
2022/03/09 03:39:13;;;;;;;29.73;12.43;;;;;;;2.96;43.83;101751.59;4992167;28;20096;-63
2022/03/09 03:41:42;;;;;;;24.58;10.30;;;;;;;3.02;43.75;101739.03;4960869;28;20055;-64
2022/03/09 03:44:09;;;;;;;20.90;8.88;;;;;;;3.00;43.60;101743.53;4976157;28;20038;-63
2022/03/09 03:46:35;;;;;;;25.40;8.75;;;;;;;3.05;43.17;101745.88;4992319;28;20054;-63
2022/03/09 03:49:03;;;;;;;20.65;8.60;;;;;;;3.05;43.52;101740.63;4992150;28;20100;-64
2022/03/09 03:51:30;;;;;;;21.70;8.93;;;;;;;3.12;43.43;101742.00;4992260;28;20038;-63
2022/03/09 03:53:57;;;;;;;19.50;8.18;;;;;;;3.16;42.78;101738.28;4991743;28;20050;-63
2022/03/09 03:56:23;;;;;;;23.23;7.72;;;;;;;3.08;42.92;101736.06;4991139;28;20043;-63
2022/03/09 03:58:50;;;;;;;23.88;9.48;;;;;;;2.97;44.10;101740.22;4991764;28;20046;-63
2022/03/09 04:01:17;;;;;;;22.08;8.05;;;;;;;3.02;43.65;101739.03;4991658;28;20112;-63
2022/03/09 04:03:43;;;;;;;21.15;7.95;;;;;;;3.00;43.59;101746.13;4992812;28;20069;-63
2022/03/09 04:06:10;;;;;;;20.23;7.93;;;;;;;2.94;43.92;101743.81;5010817;28;20042;-64
2022/03/09 04:08:37;;;;;;;20.83;8.35;;;;;;;2.99;42.99;101743.59;5012311;28;20050;-64
2022/03/09 04:11:04;;;;;;;19.65;7.95;;;;;;;3.13;42.30;101742.84;5043451;28;20129;-64
2022/03/09 04:13:31;;;;;;;18.45;8.23;;;;;;;3.19;42.73;101742.53;5012389;28;20082;-63
2022/03/09 04:15:57;;;;;;;20.40;8.45;;;;;;;3.20;42.27;101738.97;5026720;28;20053;-63
2022/03/09 04:18:24;;;;;;;21.17;8.05;;;;;;;3.15;42.89;101735.78;5039816;28;20042;-63
2022/03/09 04:20:51;;;;;;;18.52;8.23;;;;;;;3.10;42.98;101737.78;4975279;28;20055;-63
2022/03/09 04:23:17;;;;;;;21.33;8.63;;;;;;;3.07;43.30;101738.78;4975061;28;20061;-64
2022/03/09 04:25:44;;;;;;;19.10;8.27;;;;;;;3.08;42.87;101730.84;4990898;28;20050;-63
2022/03/09 04:28:11;;;;;;;24.55;7.97;;;;;;;2.90;42.78;101736.22;4992526;28;20074;-63
2022/03/09 04:30:38;;;;;;;16.80;8.02;;;;;;;2.80;43.16;101748.94;4992240;28;20057;-64
2022/03/09 04:33:06;;;;;;;19.17;7.60;;;;;;;2.89;42.92;101751.06;4992447;28;20073;-63
2022/03/09 04:35:33;;;;;;;20.60;8.57;;;;;;;2.91;43.42;101754.50;4974930;28;20039;-64
2022/03/09 04:37:59;;;;;;;19.42;8.18;;;;;;;2.95;43.79;101749.91;4992246;28;20042;-64
2022/03/09 04:40:27;;;;;;;21.05;8.50;;;;;;;2.94;43.04;101750.84;4992275;28;20046;-63
2022/03/09 04:42:57;;;;;;;21.27;8.40;;;;;;;2.85;42.84;101745.13;4992160;28;20077;-63
2022/03/09 04:45:24;;;;;;;19.83;7.85;;;;;;;2.87;43.42;101739.81;4990730;28;20300;-63
2022/03/09 04:47:50;;;;;;;21.20;7.38;;;;;;;3.04;42.46;101737.19;4990116;28;20042;-63
2022/03/09 04:50:17;;;;;;;20.15;7.45;;;;;;;3.04;42.55;101737.19;4975110;28;20414;-64
2022/03/09 04:52:44;;;;;;;18.20;8.50;;;;;;;3.06;42.39;101734.47;4991796;28;20493;-63
2022/03/09 04:55:12;;;;;;;19.23;8.35;;;;;;;2.96;42.59;101735.88;4974824;28;20603;-63
2022/03/09 04:57:40;;;;;;;20.55;8.35;;;;;;;2.96;43.31;101735.88;4991196;28;20042;-63
2022/03/09 05:00:08;;;;;;;20.55;8.30;;;;;;;2.94;42.92;101746.44;4991066;28;20112;-63
2022/03/09 05:02:35;;;;;;;23.05;8.85;;;;;;;2.83;42.85;101740.91;4990480;28;20042;-64
2022/03/09 05:05:02;;;;;;;26.40;8.63;;;;;;;2.88;43.17;101741.53;4990343;28;20066;-63
2022/03/09 05:07:30;;;;;;;21.70;8.20;;;;;;;2.86;42.88;101748.63;4990605;28;20043;-64
2022/03/09 05:09:57;;;;;;;21.05;8.63;;;;;;;2.94;42.79;101748.22;4974673;28;20042;-64
2022/03/09 05:12:23;;;;;;;17.55;8.18;;;;;;;2.98;41.90;101758.44;4990249;28;20042;-64
2022/03/09 05:14:50;;;;;;;22.63;8.93;;;;;;;2.96;43.14;101755.06;4989836;28;20100;-64
2022/03/09 05:17:17;;;;;;;47.30;10.18;;;;;;;2.84;43.01;101751.31;4988548;28;20046;-64
2022/03/09 05:19:43;;;;;;;21.30;8.82;;;;;;;2.94;42.86;101756.09;4990179;28;20048;-63
2022/03/09 05:22:10;;;;;;;20.50;8.40;;;;;;;2.93;42.89;101757.00;5006392;28;20043;-63
2022/03/09 05:24:40;;;;;;;22.48;8.32;;;;;;;2.84;43.35;101758.34;4958528;28;20062;-64
2022/03/09 05:27:07;;;;;;;20.27;8.75;;;;;;;3.03;42.45;101756.44;4989192;28;20038;-65
2022/03/09 05:29:34;;;;;;;24.45;8.98;;;;;;;2.93;43.44;101759.63;4989124;28;20046;-64
2022/03/09 05:32:01;;;;;;;21.05;8.20;;;;;;;2.99;43.56;101757.53;4973648;28;20119;-64
2022/03/09 05:34:27;;;;;;;30.25;10.95;;;;;;;2.96;43.59;101756.84;4990247;28;20087;-64
2022/03/09 05:36:54;;;;;;;17.70;8.20;;;;;;;2.78;43.12;101754.25;4990534;28;20050;-63
2022/03/09 05:39:21;;;;;;;21.20;8.07;;;;;;;2.90;42.90;101759.81;4988902;28;20038;-63
2022/03/09 05:41:48;;;;;;;21.02;8.32;;;;;;;3.00;42.62;101761.88;4972497;28;20053;-63
2022/03/09 05:44:17;;;;;;;21.50;8.93;;;;;;;2.91;43.48;101764.09;4971425;28;20390;-64
2022/03/09 05:46:43;;;;;;;18.90;8.52;;;;;;;2.98;43.40;101768.09;4990812;28;20490;-64
2022/03/09 05:49:12;;;;;;;19.75;8.35;;;;;;;2.97;43.34;101771.66;4989831;28;20078;-63
2022/03/09 05:51:38;;;;;;;22.75;8.25;;;;;;;2.90;43.83;101773.75;4991194;28;20498;-62
2022/03/09 05:54:05;;;;;;;20.05;8.00;;;;;;;2.73;43.58;101785.09;4974043;28;20046;-64
2022/03/09 05:56:32;;;;;;;21.23;8.30;;;;;;;2.68;43.24;101785.31;4956803;28;20452;-64
2022/03/09 05:58:58;;;;;;;18.20;8.10;;;;;;;2.77;43.92;101791.03;4991484;28;20418;-63
2022/03/09 06:01:25;;;;;;;22.65;8.77;;;;;;;2.87;42.92;101779.13;4990207;28;20096;-63
2022/03/09 06:03:52;;;;;;;20.23;8.38;;;;;;;2.90;42.95;101781.59;4987722;28;20646;-64
2022/03/09 06:06:18;;;;;;;20.83;8.45;;;;;;;2.88;43.11;101779.06;5000217;28;20434;-63
2022/03/09 06:08:47;;;;;;;23.60;8.75;;;;;;;2.94;43.09;101779.69;5004143;28;20576;-64
2022/03/09 06:11:14;;;;;;;27.60;9.15;;;;;;;2.95;43.07;101776.13;4969003;28;20100;-63
2022/03/09 06:13:40;;;;;;;25.90;8.65;;;;;;;2.91;42.62;101779.81;4954148;28;20411;-64
2022/03/09 06:16:07;;;;;;;22.25;8.38;;;;;;;2.85;42.91;101783.63;4960023;28;20051;-64
2022/03/09 06:18:34;;;;;;;23.50;9.52;;;;;;;2.78;43.38;101790.94;4987834;28;20046;-65
2022/03/09 06:21:01;;;;;;;19.35;8.65;;;;;;;2.88;43.09;101781.69;4989532;28;20388;-64
2022/03/09 06:23:28;;;;;;;22.02;8.93;;;;;;;2.90;43.63;101792.09;4989378;28;20057;-65
2022/03/09 06:25:54;;;;;;;19.35;8.73;;;;;;;2.73;43.32;101792.09;4972900;28;20042;-63
2022/03/09 06:28:21;;;;;;;22.50;8.75;;;;;;;2.76;43.47;101798.03;4990606;28;20046;-64
2022/03/09 06:30:48;;;;;;;24.05;8.82;;;;;;;2.76;43.01;101800.66;4989286;28;20042;-63
2022/03/09 06:33:15;;;;;;;21.77;8.63;;;;;;;2.78;42.57;101803.19;4989576;28;20499;-64
2022/03/09 06:35:42;;;;;;;21.73;8.30;;;;;;;2.84;42.67;101795.03;4973185;28;20080;-64
2022/03/09 06:38:11;;;;;;;23.60;9.10;;;;;;;2.91;42.89;101806.03;4989122;28;20047;-64
2022/03/09 06:40:37;;;;;;;25.52;8.75;;;;;;;2.95;42.86;101799.69;4988988;28;20058;-64
2022/03/09 06:43:04;;;;;;;30.67;8.98;;;;;;;3.06;43.41;101797.41;4988788;28;20171;-64
2022/03/09 06:45:35;;;;;;;24.00;10.70;;;;;;;3.11;43.11;101795.41;4988978;28;20043;-65
2022/03/09 06:48:04;;;;;;;22.23;8.82;;;;;;;3.06;42.98;101800.88;4983862;28;20133;-63
2022/03/09 06:50:31;;;;;;;23.33;9.50;;;;;;;3.11;43.56;101803.25;4972756;28;20065;-64
2022/03/09 06:52:58;;;;;;;23.00;9.35;;;;;;;3.22;42.63;101805.28;4988345;28;20050;-64
2022/03/09 06:55:25;;;;;;;22.58;8.55;;;;;;;3.24;42.23;101806.09;4960738;28;20093;-64
2022/03/09 06:57:51;;;;;;;23.63;9.77;;;;;;;3.32;41.94;101814.38;4988551;28;20038;-64
2022/03/09 07:00:19;;;;;;;24.02;9.27;;;;;;;3.25;42.95;101815.63;4990035;28;20046;-64
2022/03/09 07:02:46;;;;;;;25.75;9.52;;;;;;;3.41;42.53;101815.69;4990037;28;20116;-64
2022/03/09 07:05:13;;;;;;;23.45;9.45;;;;;;;3.35;42.25;101814.22;4989908;28;20053;-64
2022/03/09 07:07:40;;;;;;;22.80;8.38;;;;;;;3.43;41.40;101813.81;4990021;28;20038;-64
2022/03/09 07:10:11;;;;;;;25.80;10.32;;;;;;;3.54;42.30;101819.34;4973285;28;20043;-64
2022/03/09 07:12:41;;;;;;;19.27;8.30;;;;;;;3.50;42.54;101816.97;4992199;28;20046;-64
2022/03/09 07:15:09;;;;;;;27.95;9.95;;;;;;;3.48;41.66;101827.53;4993043;28;20062;-64
2022/03/09 07:17:36;;;;;;;24.23;8.95;;;;;;;3.54;41.51;101816.72;4992122;28;20038;-64
2022/03/09 07:20:04;;;;;;;22.23;9.55;;;;;;;3.56;42.45;101821.88;4993147;28;20099;-64
2022/03/09 07:22:34;;;;;;;22.02;8.98;;;;;;;3.64;42.61;101820.53;4992433;28;20066;-64
2022/03/09 07:25:00;;;;;;;24.65;9.40;;;;;;;3.73;41.88;101820.97;4975858;28;20054;-64
2022/03/09 07:27:27;;;;;;;20.45;9.15;;;;;;;3.78;41.77;101816.31;4959945;28;20054;-64
2022/03/09 07:29:55;;;;;;;27.10;11.23;;;;;;;3.90;41.42;101820.06;4976108;28;20474;-64
2022/03/09 07:32:22;;;;;;;21.77;9.25;;;;;;;3.95;41.80;101815.41;4993185;28;20050;-64
2022/03/09 07:35:02;;;;;;;22.45;9.32;;;;;;;4.13;41.01;101819.63;4991984;28;20034;-64
2022/03/09 07:37:29;;;;;;;22.40;9.23;;;;;;;4.19;40.93;101816.66;4991978;28;20047;-64
2022/03/09 07:39:58;;;;;;;20.48;9.05;;;;;;;4.19;41.61;101828.94;4991925;28;20088;-64
2022/03/09 07:42:24;;;;;;;25.92;9.60;;;;;;;4.21;41.01;101833.16;4959499;28;20093;-64
2022/03/09 07:44:51;;;;;;;18.92;8.80;;;;;;;4.38;40.83;101841.88;4991680;28;20034;-63
2022/03/09 07:47:23;;;;;;;26.13;8.73;;;;;;;4.45;39.89;101839.75;4991553;28;20391;-64
2022/03/09 07:49:49;;;;;;;21.52;9.38;;;;;;;4.48;40.20;101836.97;4975533;28;20050;-64
2022/03/09 07:52:16;;;;;;;22.10;9.23;;;;;;;4.69;40.84;101850.63;4991819;28;20039;-64
2022/03/09 07:54:43;;;;;;;25.27;9.70;;;;;;;4.75;40.63;101845.03;4991761;28;20490;-64
2022/03/09 07:57:09;;;;;;;28.63;10.57;;;;;;;4.97;40.68;101855.97;4988656;28;20495;-64
2022/03/09 07:59:36;;;;;;;27.48;9.30;;;;;;;5.10;39.90;101861.38;5030133;28;20111;-64
2022/03/09 08:02:04;;;;;;;20.45;8.85;;;;;;;5.12;39.35;101866.53;5002561;28;20107;-64
2022/03/09 08:04:31;;;;;;;23.05;9.35;;;;;;;5.21;39.65;101860.72;5090425;28;20040;-63
2022/03/09 08:06:58;;;;;;;28.98;9.50;;;;;;;5.24;40.14;101864.94;4995016;28;20043;-64
2022/03/09 08:09:24;;;;;;;22.63;9.10;;;;;;;5.41;38.81;101856.06;4989456;28;20046;-65
2022/03/09 08:11:51;;;;;;;23.35;9.50;;;;;;;5.49;38.99;101870.41;5056950;28;20469;-64
2022/03/09 08:14:18;;;;;;;21.23;9.80;;;;;;;5.49;38.47;101859.88;5027304;28;20042;-64
2022/03/09 08:16:45;;;;;;;24.33;9.50;;;;;;;5.73;38.88;101865.44;5042196;28;20044;-64
2022/03/09 08:19:12;;;;;;;28.42;10.20;;;;;;;5.73;37.86;101861.94;5036388;28;20038;-64
2022/03/09 08:21:39;;;;;;;20.58;9.50;;;;;;;5.86;37.47;101862.06;5015964;28;20096;-64
2022/03/09 08:24:06;;;;;;;25.08;9.70;;;;;;;5.87;37.52;101863.75;4986522;28;20070;-64
2022/03/09 08:26:33;;;;;;;145.85;53.60;;;;;;;6.04;37.76;101867.97;4994100;28;20506;-62
2022/03/09 08:29:00;;;;;;;45.90;18.23;;;;;;;6.12;38.00;101873.63;5018465;28;20509;-62
2022/03/09 08:31:27;;;;;;;24.67;9.15;;;;;;;6.30;37.18;101872.44;5025737;28;20380;-62
2022/03/09 08:33:55;;;;;;;21.25;9.82;;;;;;;6.23;36.76;101879.03;5018675;28;20046;-62
2022/03/09 08:36:22;;;;;;;19.45;9.07;;;;;;;6.35;36.77;101880.06;5090808;27;20062;-62
2022/03/09 08:38:49;;;;;;;21.42;9.43;;;;;;;6.61;36.77;101888.06;4993446;28;20047;-64
2022/03/09 08:41:16;;;;;;;18.98;8.63;;;;;;;6.69;35.84;101893.66;5043220;28;20042;-64
2022/03/09 08:43:43;;;;;;;21.77;9.07;;;;;;;6.85;36.15;101894.34;5015249;28;20402;-64
2022/03/09 08:46:11;;;;;;;20.48;9.18;;;;;;;6.53;34.86;101888.53;5040260;28;20402;-64
2022/03/09 08:48:46;;;;;;;21.67;9.10;;;;;;;6.52;35.78;101890.34;5053338;27;20405;-64
2022/03/09 08:51:13;;;;;;;22.38;9.50;;;;;;;6.63;35.25;101884.38;5029119;28;20053;-64
2022/03/09 08:53:40;;;;;;;20.88;9.57;;;;;;;6.73;34.71;101893.38;4999537;28;20038;-63
2022/03/09 08:56:07;;;;;;;26.63;8.65;;;;;;;6.88;35.50;101893.31;5020696;28;20123;-63
2022/03/09 08:58:35;;;;;;;22.70;10.00;;;;;;;6.89;34.25;101887.06;4987440;28;20165;-64
2022/03/09 09:01:02;;;;;;;23.35;9.15;;;;;;;6.90;34.46;101883.50;4997935;28;20065;-65
2022/03/09 09:03:29;;;;;;;20.85;9.23;;;;;;;6.88;34.37;101888.88;5007746;28;20041;-65
2022/03/09 09:05:56;;;;;;;23.02;10.05;;;;;;;6.83;34.78;101877.78;4991783;28;20038;-65
2022/03/09 09:08:23;;;;;;;22.33;9.75;;;;;;;6.52;36.30;101879.78;4992871;28;20487;-65
2022/03/09 09:10:50;;;;;;;20.65;9.98;;;;;;;6.65;35.84;101884.28;5001394;28;20042;-65
2022/03/09 09:13:17;;;;;;;21.45;9.43;;;;;;;6.82;34.58;101881.38;4996121;28;20049;-65
2022/03/09 09:15:44;;;;;;;20.70;10.00;;;;;;;7.01;35.48;101888.06;4996439;28;20038;-65
2022/03/09 09:18:11;;;;;;;22.58;9.52;;;;;;;7.29;34.39;101887.03;4997227;28;20049;-65
2022/03/09 09:20:45;;;;;;;23.77;9.95;;;;;;;7.56;34.13;101880.81;4988897;28;20035;-65
2022/03/09 09:23:11;;;;;;;20.85;10.23;;;;;;;7.95;33.97;101879.81;4996306;28;20050;-65
2022/03/09 09:25:38;;;;;;;23.63;10.82;;;;;;;8.09;33.74;101873.53;4984704;28;20031;-65
2022/03/09 09:28:05;;;;;;;23.20;9.85;;;;;;;8.77;32.29;101881.88;4981497;28;20046;-65
2022/03/09 09:30:32;;;;;;;23.10;9.88;;;;;;;9.71;31.04;101879.97;4975420;28;20046;-65
2022/03/09 09:33:01;;;;;;;21.92;10.23;;;;;;;10.72;29.06;101885.09;4999303;28;20038;-65
2022/03/09 09:35:29;;;;;;;23.17;10.60;;;;;;;11.82;28.18;101884.63;4997653;28;20049;-66
2022/03/09 09:38:06;;;;;;;25.40;11.15;;;;;;;12.64;25.62;101880.94;4992530;28;20076;-64
2022/03/09 09:40:35;;;;;;;35.65;17.00;;;;;;;13.92;24.82;101878.84;5002101;28;20050;-64
2022/03/09 09:43:07;;;;;;;25.70;11.05;;;;;;;14.12;24.65;101877.72;4956995;28;20038;-61
2022/03/09 09:45:35;;;;;;;25.45;11.07;;;;;;;14.32;23.98;101875.78;5030844;27;20045;-63
2022/03/09 09:48:05;;;;;;;21.05;11.05;;;;;;;15.53;22.46;101880.56;4992060;28;20050;-60
2022/03/09 09:50:35;;;;;;;27.25;11.45;;;;;;;16.38;21.58;101869.03;4989463;28;20047;-61
2022/03/09 09:53:05;;;;;;;24.98;11.25;;;;;;;16.32;21.05;101873.22;4991491;28;20106;-61
2022/03/09 09:55:32;;;;;;;22.13;12.15;;;;;;;16.00;20.96;101868.63;4999484;28;20035;-62
2022/03/09 09:58:00;;;;;;;31.75;11.77;;;;;;;17.25;20.52;101867.53;4990728;28;20042;-62
2022/03/09 10:00:27;;;;;;;23.92;12.20;;;;;;;17.48;19.39;101874.84;5023113;28;20038;-62
2022/03/09 10:02:59;;;;;;;27.35;11.98;;;;;;;17.92;19.04;101870.88;4993195;28;20047;-64
2022/03/09 10:05:26;;;;;;;20.25;12.18;;;;;;;18.12;18.85;101871.25;4986987;28;20490;-64
2022/03/09 10:08:13;;;;;;;26.27;12.43;;;;;;;19.03;17.99;101872.31;5003227;28;20517;-64
2022/03/09 10:10:43;;;;;;;24.70;12.98;;;;;;;18.56;18.36;101871.50;4995027;28;20034;-64
2022/03/09 10:15:49;;;;;;;29.35;13.27;;;;;;;19.33;17.86;101872.34;5135769;27;20916;-65
2022/03/09 10:18:18;;;;;;;29.90;13.75;;;;;;;20.22;17.03;101866.88;5146564;27;20433;-65
2022/03/09 10:20:47;;;;;;;23.65;13.65;;;;;;;20.40;16.13;101862.91;5116844;27;20044;-65
2022/03/09 10:23:16;;;;;;;29.83;14.13;;;;;;;20.15;16.51;101879.44;5125450;27;20042;-65
2022/03/09 10:25:43;;;;;;;23.77;13.77;;;;;;;20.46;16.33;101872.91;5106985;28;20080;-63
2022/03/09 10:28:11;;;;;;;27.90;13.90;;;;;;;20.73;15.90;101868.66;5116543;27;20035;-63
2022/03/09 10:30:41;;;;;;;28.08;14.02;;;;;;;21.21;15.60;101867.97;5147101;27;20074;-64
2022/03/09 10:33:10;;;;;;;27.08;13.07;;;;;;;21.11;15.54;101870.19;5125488;27;20043;-63
2022/03/09 10:35:48;;;;;;;34.45;14.23;;;;;;;20.22;16.24;101871.44;5127011;27;20067;-63
2022/03/09 10:40:58;;;;;;;25.10;13.65;;;;;;;20.44;15.82;101872.28;5043501;27;20403;-64
2022/03/09 10:43:27;;;;;;;;;;;;;;;21.31;15.70;101867.63;5047293;28;20044;-65
2022/03/09 10:46:11;;;;;;;30.55;13.32;;;;;;;20.91;15.84;101865.47;5007481;28;20473;-65
2022/03/09 10:48:57;;;;;;;36.85;13.65;;;;;;;21.81;15.25;101866.47;5048371;28;20045;-65
2022/03/09 10:51:34;;;;;;;23.58;13.50;;;;;;;21.65;14.37;101862.25;5050054;28;20394;-65
2022/03/09 10:54:04;;;;;;;34.72;13.80;;;;;;;22.71;13.84;101857.34;5049921;28;20044;-65
2022/03/09 10:56:32;;;;;;;26.17;13.75;;;;;;;22.51;14.26;101858.16;5049653;28;20117;-65
2022/03/09 10:59:19;;;;;;;23.50;13.43;;;;;;;22.96;13.75;101852.13;5036163;28;20073;-65
2022/03/09 11:02:03;;;;;;;25.35;13.13;;;;;;;22.48;14.66;101849.63;5029833;28;20410;-65
2022/03/09 11:04:30;;;;;;;29.10;14.13;;;;;;;22.69;14.60;101846.72;5029846;28;20051;-65
2022/03/09 11:06:57;;;;;;;22.40;13.23;;;;;;;23.46;13.69;101844.34;5028615;28;20046;-65
2022/03/09 11:09:24;;;;;;;26.00;12.95;;;;;;;23.62;13.37;101843.03;5029967;28;20042;-65
2022/03/09 11:11:52;;;;;;;29.70;12.88;;;;;;;22.32;14.02;101842.72;5042088;28;20136;-65
2022/03/09 11:14:21;;;;;;;33.17;13.88;;;;;;;23.39;13.40;101843.53;5048362;28;20116;-65
2022/03/09 11:16:48;;;;;;;23.98;13.60;;;;;;;23.95;13.65;101845.59;5049345;28;20045;-65
2022/03/09 11:19:18;;;;;;;26.83;13.68;;;;;;;23.50;13.27;101837.47;5031615;28;20128;-65
2022/03/09 11:21:45;;;;;;;25.38;13.45;;;;;;;23.38;13.94;101836.47;5015154;28;20391;-65
2022/03/09 11:24:14;;;;;;;22.65;13.40;;;;;;;24.01;12.77;101835.78;5031787;28;20080;-65
2022/03/09 11:26:45;;;;;;;24.27;13.27;;;;;;;24.66;12.75;101832.03;5049151;28;20045;-65
2022/03/09 11:29:12;;;;;;;26.13;13.15;;;;;;;25.31;12.38;101834.34;5047995;28;20045;-65
2022/03/09 11:31:49;;;;;;;24.13;14.13;;;;;;;24.06;12.90;101829.72;5048877;28;20560;-64
2022/03/09 11:34:46;;;;;;;24.10;13.52;;;;;;;24.46;12.56;101822.13;5048503;28;20057;-65
2022/03/09 11:42:44;;;;;;;24.85;14.00;;;;;;;25.88;11.62;101811.50;5090489;27;20385;-63